Time;durP1;ratioP1;P1;durP2;ratioP2;P2;SDS_P1;SDS_P2;PMS_P1;PMS_P2;Temp;Humidity;BMP_temperature;BMP_pressure;BME280_temperature;BME280_humidity;BME280_pressure;Samples;Min_cycle;Max_cycle;Signal;HPM_P1;HPM_P2
2023/06/03 00:01:50;;;;;;;35.08;17.23;;;15.80;99.90;;;;;;4983423;28;20203;-73
2023/06/03 00:04:23;;;;;;;33.90;17.48;;;15.90;99.90;;;;;;4983049;28;20687;-73
2023/06/03 00:06:54;;;;;;;40.30;18.58;;;15.90;99.90;;;;;;4979104;28;20200;-73
2023/06/03 00:09:26;;;;;;;33.63;17.55;;;16.00;99.90;;;;;;4979882;28;20206;-73
2023/06/03 00:11:57;;;;;;;32.97;16.95;;;16.00;99.90;;;;;;4983655;28;20196;-73
2023/06/03 00:14:28;;;;;;;35.13;16.48;;;16.10;99.90;;;;;;4977950;28;20196;-73
2023/06/03 00:16:59;;;;;;;29.60;14.90;;;16.10;99.90;;;;;;4984153;28;20196;-73
2023/06/03 00:19:32;;;;;;;32.90;16.77;;;16.20;99.90;;;;;;4983224;28;20210;-73
2023/06/03 00:22:03;;;;;;;27.02;15.05;;;16.20;99.90;;;;;;4973228;28;20200;-73
2023/06/03 00:24:34;;;;;;;28.17;15.73;;;16.40;99.90;;;;;;4970963;28;20211;-73
2023/06/03 00:27:05;;;;;;;28.05;14.50;;;16.50;99.90;;;;;;4982672;28;20192;-74
2023/06/03 00:29:37;;;;;;;26.23;13.75;;;16.60;99.90;;;;;;4965901;28;20581;-73
2023/06/03 00:32:10;;;;;;;26.88;14.82;;;16.70;99.90;;;;;;4986196;28;20192;-73
2023/06/03 00:34:43;;;;;;;26.02;14.55;;;16.80;99.90;;;;;;4994428;28;20211;-74
2023/06/03 00:37:14;;;;;;;25.63;14.05;;;16.90;99.90;;;;;;4980458;28;20279;-73
2023/06/03 00:39:45;;;;;;;22.38;12.75;;;17.00;99.90;;;;;;4976412;28;20204;-73
2023/06/03 00:42:16;;;;;;;22.40;12.55;;;17.20;99.90;;;;;;4976104;28;20203;-73
2023/06/03 00:44:47;;;;;;;21.50;12.32;;;17.20;99.90;;;;;;4975238;28;20226;-74
2023/06/03 00:47:20;;;;;;;20.75;11.98;;;17.10;99.90;;;;;;4976085;28;20205;-73
2023/06/03 00:49:53;;;;;;;19.90;11.63;;;17.20;99.90;;;;;;4976317;28;20255;-72
2023/06/03 00:52:26;;;;;;;17.27;10.93;;;17.30;99.90;;;;;;4977167;28;20412;-73
2023/06/03 00:54:57;;;;;;;23.05;11.90;;;17.50;99.90;;;;;;4975013;28;20247;-73
2023/06/03 00:57:29;;;;;;;23.00;10.60;;;17.70;99.90;;;;;;4975073;28;20653;-73
2023/06/03 01:00:01;;;;;;;20.42;12.15;;;17.80;99.90;;;;;;4976782;28;20243;-73
2023/06/03 01:02:33;;;;;;;17.33;9.93;;;17.90;99.90;;;;;;4974579;28;20226;-73
2023/06/03 01:05:07;;;;;;;19.55;10.07;;;18.00;99.90;;;;;;4972979;28;20192;-73
2023/06/03 01:07:47;;;;;;;20.42;10.43;;;18.10;99.90;;;;;;4975419;28;20207;-73
2023/06/03 01:10:26;;;;;;;18.30;9.80;;;18.20;99.90;;;;;;4976201;28;20263;-73
2023/06/03 01:13:04;;;;;;;16.33;9.50;;;18.30;99.90;;;;;;4975694;28;20558;-74
2023/06/03 01:15:37;;;;;;;15.77;8.77;;;18.40;99.90;;;;;;4972240;28;20222;-74
2023/06/03 01:18:09;;;;;;;14.68;8.15;;;18.50;99.90;;;;;;4974555;28;20204;-75
2023/06/03 01:20:43;;;;;;;15.15;8.27;;;18.50;99.90;;;;;;4975549;28;20200;-74
2023/06/03 01:23:35;;;;;;;11.45;7.07;;;18.50;99.90;;;;;;4970256;28;20225;-75
2023/06/03 01:26:06;;;;;;;13.90;7.95;;;18.60;99.90;;;;;;4971009;28;20196;-75
2023/06/03 01:28:38;;;;;;;12.27;7.65;;;18.80;99.90;;;;;;4972308;28;20562;-74
2023/06/03 01:31:10;;;;;;;15.57;8.00;;;18.90;99.90;;;;;;4976165;28;20672;-75
2023/06/03 01:33:42;;;;;;;12.05;7.30;;;19.00;99.90;;;;;;4974392;28;20200;-76
2023/06/03 01:36:15;;;;;;;11.93;7.00;;;19.20;99.90;;;;;;4971699;28;20204;-75
2023/06/03 01:38:48;;;;;;;11.38;7.22;;;19.30;99.90;;;;;;4971698;28;20214;-75
2023/06/03 01:41:20;;;;;;;10.60;6.53;;;19.40;99.90;;;;;;4973289;28;20204;-75
2023/06/03 01:43:51;;;;;;;11.50;6.22;;;19.50;99.90;;;;;;4974647;28;20220;-74
2023/06/03 01:46:22;;;;;;;10.63;5.32;;;19.60;99.90;;;;;;4973880;28;20196;-76
2023/06/03 01:48:54;;;;;;;11.38;5.53;;;19.70;99.90;;;;;;4974563;28;20675;-73
2023/06/03 01:51:29;;;;;;;9.68;6.03;;;19.80;99.90;;;;;;4974226;28;20212;-73
2023/06/03 01:54:02;;;;;;;9.77;6.05;;;19.90;99.90;;;;;;4973319;28;20206;-73
2023/06/03 01:56:34;;;;;;;12.48;6.07;;;19.90;99.90;;;;;;4974997;28;20200;-74
2023/06/03 01:59:05;;;;;;;10.27;5.22;;;20.10;99.90;;;;;;4975607;28;20256;-74
2023/06/03 02:01:36;;;;;;;14.07;6.38;;;20.10;99.90;;;;;;4975094;28;20199;-73
2023/06/03 02:04:07;;;;;;;11.60;5.68;;;20.20;99.90;;;;;;4973518;28;20216;-75
2023/06/03 02:06:38;;;;;;;10.68;5.40;;;20.20;99.90;;;;;;4974623;28;20653;-74
2023/06/03 02:09:13;;;;;;;9.07;5.82;;;20.30;99.90;;;;;;4975326;28;20550;-74
2023/06/03 02:11:46;;;;;;;10.02;6.03;;;20.50;99.90;;;;;;4975580;28;20199;-74
2023/06/03 02:14:17;;;;;;;9.27;5.10;;;20.60;99.90;;;;;;4975525;28;20196;-75
2023/06/03 02:16:48;;;;;;;9.48;5.20;;;20.70;99.90;;;;;;4970978;28;20275;-73
2023/06/03 02:19:20;;;;;;;10.40;6.25;;;20.80;99.90;;;;;;4962631;28;20212;-75
2023/06/03 02:21:52;;;;;;;8.95;5.30;;;20.90;99.90;;;;;;4974249;28;20211;-74
2023/06/03 02:24:28;;;;;;;11.32;5.38;;;20.90;99.90;;;;;;4971520;28;20684;-73
2023/06/03 02:27:01;;;;;;;9.32;4.72;;;20.90;99.90;;;;;;4959688;28;20283;-74
2023/06/03 02:29:32;;;;;;;8.60;5.03;;;20.80;99.90;;;;;;4971863;28;20423;-74
2023/06/03 02:32:03;;;;;;;11.18;5.03;;;20.90;99.90;;;;;;4971766;28;20196;-74
2023/06/03 02:34:37;;;;;;;7.68;4.57;;;20.90;99.90;;;;;;4974544;28;20239;-73
2023/06/03 02:37:10;;;;;;;7.32;4.65;;;21.00;99.90;;;;;;4973534;28;20203;-74
2023/06/03 02:39:43;;;;;;;8.98;4.40;;;21.10;99.90;;;;;;4975052;28;20196;-74
2023/06/03 02:42:14;;;;;;;8.00;4.32;;;21.10;99.90;;;;;;4974188;28;20200;-74
2023/06/03 02:44:46;;;;;;;8.90;4.82;;;21.20;99.90;;;;;;4974297;28;20226;-73
2023/06/03 02:47:17;;;;;;;8.25;4.70;;;21.30;99.90;;;;;;4973826;28;20595;-75
2023/06/03 02:49:49;;;;;;;7.22;4.57;;;21.30;99.90;;;;;;4974155;28;20193;-76
2023/06/03 02:52:20;;;;;;;7.40;4.40;;;21.30;99.90;;;;;;4973508;28;20204;-75
2023/06/03 02:54:53;;;;;;;8.52;4.60;;;21.30;99.90;;;;;;4955828;28;20197;-75
2023/06/03 02:57:24;;;;;;;8.23;4.68;;;21.30;99.90;;;;;;4955696;28;20193;-75
2023/06/03 02:59:55;;;;;;;9.40;4.32;;;21.30;99.90;;;;;;4970284;28;20235;-76
2023/06/03 03:02:27;;;;;;;6.78;3.80;;;21.40;99.90;;;;;;4971253;28;20251;-73
2023/06/03 03:04:58;;;;;;;9.00;4.35;;;21.50;99.90;;;;;;4974554;28;20223;-73
2023/06/03 03:07:32;;;;;;;7.22;3.50;;;21.60;99.90;;;;;;4974985;28;20203;-73
2023/06/03 03:10:06;;;;;;;6.85;3.70;;;21.70;99.90;;;;;;4973907;28;20199;-73
2023/06/03 03:12:37;;;;;;;6.72;3.33;;;21.80;99.90;;;;;;4973627;28;20208;-73
2023/06/03 03:15:09;;;;;;;6.88;3.63;;;21.80;99.90;;;;;;4973738;28;20206;-73
2023/06/03 03:17:40;;;;;;;7.75;3.75;;;21.80;99.90;;;;;;4973770;28;20200;-75
2023/06/03 03:20:12;;;;;;;7.68;3.88;;;21.90;99.90;;;;;;4973228;28;20211;-75
2023/06/03 03:22:45;;;;;;;6.15;3.88;;;21.90;99.90;;;;;;4974548;28;20735;-76
2023/06/03 03:25:18;;;;;;;4.43;3.00;;;22.00;99.90;;;;;;4974566;28;20398;-70
2023/06/03 03:27:49;;;;;;;7.13;3.72;;;22.10;99.90;;;;;;4971740;28;20201;-71
2023/06/03 03:30:20;;;;;;;8.25;4.10;;;22.10;99.90;;;;;;4973810;28;20204;-73
2023/06/03 03:32:51;;;;;;;7.57;3.60;;;22.10;99.90;;;;;;4974479;28;20219;-73
2023/06/03 03:35:24;;;;;;;7.32;3.60;;;22.20;99.90;;;;;;4974475;28;20200;-73
2023/06/03 03:38:04;;;;;;;7.13;3.45;;;22.20;99.90;;;;;;4972940;28;20204;-73
2023/06/03 03:40:40;;;;;;;6.95;3.50;;;22.30;99.90;;;;;;4973781;28;20200;-73
2023/06/03 03:43:18;;;;;;;6.38;3.40;;;22.40;99.90;;;;;;4974170;28;20192;-73
2023/06/03 03:45:49;;;;;;;6.47;3.40;;;22.50;99.90;;;;;;4957099;28;20197;-72
2023/06/03 03:48:23;;;;;;;6.13;3.55;;;22.60;99.90;;;;;;4974168;28;20196;-72
2023/06/03 03:50:55;;;;;;;8.77;3.95;;;22.60;99.90;;;;;;4974301;28;20196;-71
2023/06/03 03:53:30;;;;;;;6.85;3.60;;;22.60;99.90;;;;;;4974259;28;20200;-71
2023/06/03 03:56:03;;;;;;;5.35;3.50;;;22.50;99.90;;;;;;4974239;28;20255;-71
2023/06/03 03:58:43;;;;;;;5.03;3.13;;;22.40;99.90;;;;;;4973000;28;20669;-71
2023/06/03 04:01:15;;;;;;;5.40;3.58;;;22.30;99.90;;;;;;4974965;28;20199;-72
2023/06/03 04:03:48;;;;;;;4.82;3.58;;;22.20;99.90;;;;;;4976892;28;20251;-71
2023/06/03 04:06:36;;;;;;;7.45;4.22;;;22.10;99.90;;;;;;4977875;28;20199;-71
2023/06/03 04:09:09;;;;;;;9.85;4.80;;;22.10;99.90;;;;;;4978154;28;20635;-71
2023/06/03 04:11:47;;;;;;;7.38;4.60;;;22.00;99.90;;;;;;4977796;28;20271;-71
2023/06/03 04:14:18;;;;;;;7.38;4.72;;;21.90;99.90;;;;;;4977761;28;20196;-71
2023/06/03 04:16:57;;;;;;;6.88;4.55;;;21.90;99.90;;;;;;4976072;28;20295;-72
2023/06/03 04:19:33;;;;;;;7.20;4.93;;;21.80;99.90;;;;;;4975631;28;20202;-71
2023/06/03 04:22:04;;;;;;;7.93;5.03;;;21.80;99.90;;;;;;4975245;28;20200;-71
2023/06/03 04:24:38;;;;;;;7.35;4.55;;;21.80;99.90;;;;;;4977821;28;20231;-71
2023/06/03 04:27:12;;;;;;;8.18;4.70;;;21.80;99.90;;;;;;4974161;28;20204;-71
2023/06/03 04:29:43;;;;;;;7.53;4.68;;;21.80;99.90;;;;;;4977550;28;20203;-71
2023/06/03 04:32:14;;;;;;;8.65;5.00;;;21.80;99.90;;;;;;4976605;28;20201;-71
2023/06/03 04:34:53;;;;;;;8.57;5.25;;;21.80;99.90;;;;;;4976210;28;20279;-71
2023/06/03 04:37:26;;;;;;;10.02;5.68;;;21.80;99.90;;;;;;4976263;28;20204;-70
2023/06/03 04:39:58;;;;;;;9.93;5.88;;;21.80;99.90;;;;;;4977418;28;20235;-71
2023/06/03 04:42:33;;;;;;;11.50;5.63;;;21.90;99.90;;;;;;4977211;28;20198;-71
2023/06/03 04:45:05;;;;;;;8.77;4.18;;;21.80;99.90;;;;;;4976944;28;20697;-71
2023/06/03 04:47:41;;;;;;;7.50;3.60;;;21.70;99.90;;;;;;4977741;28;20200;-70
2023/06/03 04:50:19;;;;;;;9.45;2.88;;;21.50;99.90;;;;;;4975488;28;20275;-70
2023/06/03 04:52:51;;;;;;;8.15;3.10;;;21.50;99.90;;;;;;4977104;28;20239;-71
2023/06/03 04:55:22;;;;;;;7.43;3.30;;;21.40;99.90;;;;;;4975568;28;20235;-71
2023/06/03 04:57:55;;;;;;;6.95;3.20;;;21.10;99.90;;;;;;4977091;28;20202;-71
2023/06/03 05:00:27;;;;;;;7.72;3.72;;;21.00;99.90;;;;;;4975515;28;20236;-71
2023/06/03 05:02:59;;;;;;;8.25;3.60;;;20.90;99.90;;;;;;4982255;28;20210;-71
2023/06/03 05:05:30;;;;;;;5.70;3.22;;;20.90;99.90;;;;;;4976850;28;20310;-72
2023/06/03 05:08:01;;;;;;;6.10;2.97;;;20.90;99.90;;;;;;4976134;28;20664;-71
2023/06/03 05:10:35;;;;;;;7.30;3.00;;;20.90;99.90;;;;;;4975324;28;20218;-71
2023/06/03 05:13:09;;;;;;;6.47;3.25;;;20.80;99.90;;;;;;4975427;28;20563;-71
2023/06/03 05:15:40;;;;;;;7.13;2.90;;;20.80;99.90;;;;;;4976550;28;20284;-71
2023/06/03 05:18:11;;;;;;;8.55;3.67;;;20.70;99.90;;;;;;4976671;28;20193;-71
2023/06/03 05:20:42;;;;;;;7.63;3.55;;;20.60;99.90;;;;;;4976572;28;20189;-71
2023/06/03 05:23:13;;;;;;;7.97;3.67;;;20.60;99.90;;;;;;4975823;28;20196;-71
2023/06/03 05:25:44;;;;;;;6.68;3.50;;;20.60;99.90;;;;;;4974723;28;20227;-71
2023/06/03 05:28:17;;;;;;;6.35;3.30;;;20.50;99.90;;;;;;4976499;28;20624;-72
2023/06/03 05:30:48;;;;;;;6.05;3.60;;;20.50;99.90;;;;;;4975433;28;20189;-72
2023/06/03 05:33:29;;;;;;;9.23;3.70;;;20.50;99.90;;;;;;4968284;28;20204;-70
2023/06/03 05:36:00;;;;;;;7.65;4.03;;;20.40;99.90;;;;;;4975646;28;20210;-71
2023/06/03 05:38:32;;;;;;;7.97;3.85;;;20.30;99.90;;;;;;4975567;28;20200;-71
2023/06/03 05:41:04;;;;;;;11.27;4.50;;;20.20;99.90;;;;;;4974389;28;20192;-71
2023/06/03 05:43:37;;;;;;;13.75;4.60;;;20.20;99.90;;;;;;4976118;28;20188;-71
2023/06/03 05:46:08;;;;;;;11.15;5.10;;;20.10;99.90;;;;;;4975025;28;20220;-71
2023/06/03 05:48:39;;;;;;;8.85;5.00;;;20.10;99.90;;;;;;4971833;28;20211;-71
2023/06/03 05:51:10;;;;;;;9.93;5.10;;;20.00;99.90;;;;;;4973498;28;20568;-71
2023/06/03 05:53:43;;;;;;;12.40;5.55;;;20.00;99.90;;;;;;4976053;28;20197;-70
2023/06/03 05:56:14;;;;;;;12.98;5.95;;;19.90;99.90;;;;;;4975071;28;20364;-72
2023/06/03 05:58:49;;;;;;;10.35;5.38;;;19.80;99.90;;;;;;4973385;28;20307;-70
2023/06/03 06:01:20;;;;;;;13.45;5.38;;;19.70;99.90;;;;;;4965663;28;20289;-72
2023/06/03 06:03:51;;;;;;;9.43;4.78;;;19.70;99.90;;;;;;4968618;28;20211;-71
2023/06/03 06:06:22;;;;;;;10.57;5.20;;;19.60;99.90;;;;;;4973212;28;20207;-73
2023/06/03 06:08:54;;;;;;;13.30;5.22;;;19.60;99.90;;;;;;4973811;28;20694;-71
2023/06/03 06:11:26;;;;;;;9.85;5.13;;;19.50;99.90;;;;;;4973914;28;20204;-71
2023/06/03 06:13:59;;;;;;;10.68;5.45;;;19.50;99.90;;;;;;4973706;28;20612;-71
2023/06/03 06:16:30;;;;;;;13.60;5.50;;;19.50;99.90;;;;;;4974461;28;20204;-71
2023/06/03 06:19:02;;;;;;;11.15;5.38;;;19.40;99.90;;;;;;4971259;28;20201;-73
2023/06/03 06:21:33;;;;;;;12.27;5.47;;;19.40;99.90;;;;;;4973372;28;20687;-73
2023/06/03 06:24:04;;;;;;;11.05;4.93;;;19.40;99.90;;;;;;4974395;28;20656;-74
2023/06/03 06:26:35;;;;;;;12.63;5.43;;;19.40;99.90;;;;;;4973439;28;20664;-73
2023/06/03 06:29:08;;;;;;;9.95;4.85;;;19.30;99.90;;;;;;4972897;28;20196;-73
2023/06/03 06:31:39;;;;;;;9.38;5.10;;;19.30;99.90;;;;;;4970001;28;20197;-74
2023/06/03 06:34:11;;;;;;;8.98;4.50;;;19.30;99.90;;;;;;4974053;28;20357;-71
2023/06/03 06:36:49;;;;;;;10.80;4.80;;;19.20;99.90;;;;;;4970950;28;20196;-72
2023/06/03 06:39:50;;;;;;;9.88;5.22;;;19.20;99.90;;;;;;4973987;28;20254;-71
2023/06/03 06:42:32;;;;;;;13.30;4.88;;;19.10;99.90;;;;;;4972709;28;20200;-71
2023/06/03 06:45:11;;;;;;;12.20;4.28;;;19.10;99.90;;;;;;4973220;28;20617;-71
2023/06/03 06:47:42;;;;;;;10.90;4.22;;;19.00;99.90;;;;;;4973144;28;20258;-71
2023/06/03 06:50:37;;;;;;;12.50;4.25;;;19.00;99.90;;;;;;4972989;28;20203;-71
2023/06/03 06:53:08;;;;;;;9.40;4.55;;;18.90;99.90;;;;;;4973243;28;20211;-70
2023/06/03 06:55:46;;;;;;;6.65;4.70;;;18.90;99.90;;;;;;4972041;28;20251;-70
2023/06/03 06:58:18;;;;;;;9.73;5.10;;;18.80;99.90;;;;;;4971971;28;20557;-70
2023/06/03 07:00:51;;;;;;;10.98;4.57;;;18.80;99.90;;;;;;4970823;28;20595;-70
2023/06/03 07:03:23;;;;;;;7.07;4.10;;;18.80;99.90;;;;;;4973365;28;20200;-71
2023/06/03 07:05:54;;;;;;;8.15;4.38;;;18.70;99.90;;;;;;4972795;28;20222;-71
2023/06/03 07:08:26;;;;;;;7.93;4.03;;;18.60;99.90;;;;;;4967156;28;20196;-71
2023/06/03 07:11:01;;;;;;;9.02;4.70;;;18.60;99.90;;;;;;4973671;28;20200;-72
2023/06/03 07:13:31;;;;;;;9.98;4.38;;;18.60;99.90;;;;;;4962288;28;20206;-71
2023/06/03 07:16:04;;;;;;;10.75;4.45;;;18.60;99.90;;;;;;4973644;28;20564;-70
2023/06/03 07:18:36;;;;;;;9.38;3.70;;;18.50;99.90;;;;;;4974576;28;20200;-71
2023/06/03 07:21:07;;;;;;;11.68;4.45;;;18.50;99.90;;;;;;4972681;28;20207;-71
2023/06/03 07:23:37;;;;;;;9.00;4.20;;;18.50;99.90;;;;;;4974424;28;20197;-71
2023/06/03 07:26:08;;;;;;;8.45;4.07;;;18.50;99.90;;;;;;4974207;28;20235;-71
2023/06/03 07:28:39;;;;;;;7.18;4.30;;;18.50;99.90;;;;;;4974524;28;20196;-70
2023/06/03 07:31:13;;;;;;;8.95;4.20;;;18.50;99.90;;;;;;4973144;28;20545;-71
2023/06/03 07:33:51;;;;;;;8.45;3.75;;;18.50;99.90;;;;;;4973958;28;20201;-71
2023/06/03 07:36:24;;;;;;;9.07;3.70;;;18.40;99.90;;;;;;4974166;28;20250;-71
2023/06/03 07:39:05;;;;;;;7.60;3.85;;;18.50;99.90;;;;;;4975493;28;20192;-71
2023/06/03 07:41:43;;;;;;;9.52;3.90;;;18.50;99.90;;;;;;4969269;28;20204;-72
2023/06/03 07:44:16;;;;;;;9.13;3.85;;;18.40;99.90;;;;;;4964721;28;20262;-72
2023/06/03 07:46:55;;;;;;;5.43;3.30;;;18.50;99.90;;;;;;4975440;28;20220;-71
2023/06/03 07:49:26;;;;;;;9.68;3.88;;;18.50;99.90;;;;;;4977107;28;20200;-71
2023/06/03 07:51:57;;;;;;;6.15;3.45;;;18.50;99.90;;;;;;4976178;28;20200;-70
2023/06/03 07:54:29;;;;;;;6.90;3.13;;;18.50;99.90;;;;;;4976387;28;20208;-72
2023/06/03 07:57:01;;;;;;;7.57;2.70;;;18.50;99.90;;;;;;4976831;28;20204;-71
2023/06/03 07:59:32;;;;;;;6.63;2.50;;;18.50;99.90;;;;;;4974932;28;20244;-71
2023/06/03 08:02:05;;;;;;;5.80;2.58;;;18.50;99.90;;;;;;4976939;28;20197;-72
2023/06/03 08:04:37;;;;;;;5.53;2.30;;;18.50;99.90;;;;;;4975197;28;20204;-71
2023/06/03 08:07:08;;;;;;;5.53;2.35;;;18.50;99.90;;;;;;4973414;28;20200;-72
2023/06/03 08:09:40;;;;;;;5.38;2.28;;;18.50;99.90;;;;;;4974816;28;20680;-70
2023/06/03 08:12:11;;;;;;;4.35;2.10;;;18.50;99.90;;;;;;4976364;28;20652;-71
2023/06/03 08:14:42;;;;;;;5.20;2.03;;;18.60;99.90;;;;;;4976085;28;20232;-72
2023/06/03 08:17:16;;;;;;;8.55;2.38;;;18.60;99.90;;;;;;4973968;28;20206;-73
2023/06/03 08:19:48;;;;;;;5.68;1.92;;;18.60;99.90;;;;;;4976304;28;20567;-73
2023/06/03 08:22:38;;;;;;;6.60;2.08;;;18.60;99.90;;;;;;4974576;28;20204;-73
2023/06/03 08:25:10;;;;;;;5.53;2.35;;;18.60;99.90;;;;;;4972753;28;20271;-73
2023/06/03 08:27:41;;;;;;;6.45;2.40;;;18.60;99.90;;;;;;4975256;28;20284;-73
2023/06/03 08:30:14;;;;;;;4.75;2.20;;;18.60;99.90;;;;;;4976458;28;20200;-72
2023/06/03 08:32:47;;;;;;;5.13;2.35;;;18.60;99.90;;;;;;4975378;28;20200;-73
2023/06/03 08:35:21;;;;;;;8.15;2.47;;;18.60;99.90;;;;;;4976179;28;20661;-73
2023/06/03 08:37:52;;;;;;;5.25;2.40;;;18.60;99.90;;;;;;4975468;28;20200;-71
2023/06/03 08:40:25;;;;;;;7.38;2.03;;;18.70;99.90;;;;;;4974254;28;20286;-71
2023/06/03 08:43:04;;;;;;;4.88;2.10;;;18.70;99.90;;;;;;4977290;28;20232;-71
2023/06/03 08:45:43;;;;;;;4.57;2.20;;;18.70;99.90;;;;;;4972529;28;20220;-72
2023/06/03 08:48:25;;;;;;;4.40;2.10;;;18.70;99.90;;;;;;4969027;28;20719;-71
2023/06/03 08:51:03;;;;;;;6.55;2.50;;;18.70;99.90;;;;;;4974564;28;20291;-72
2023/06/03 08:53:37;;;;;;;5.63;1.98;;;18.70;99.90;;;;;;4976061;28;20200;-72
2023/06/03 08:56:08;;;;;;;5.35;1.90;;;18.60;99.90;;;;;;4966587;28;20207;-73
2023/06/03 08:58:43;;;;;;;6.28;1.95;;;18.70;99.90;;;;;;4972094;28;20725;-73
2023/06/03 09:01:17;;;;;;;7.47;1.80;;;18.60;99.90;;;;;;4974979;28;20211;-73
2023/06/03 09:03:51;;;;;;;6.20;1.77;;;18.70;99.90;;;;;;4972609;28;20200;-71
2023/06/03 09:06:21;;;;;;;9.80;2.33;;;18.70;99.90;;;;;;4976031;28;20644;-71
2023/06/03 09:08:54;;;;;;;5.13;1.80;;;18.70;99.90;;;;;;4975093;28;20206;-71
2023/06/03 09:11:25;;;;;;;2.97;1.63;;;18.70;99.90;;;;;;4974839;28;20192;-71
2023/06/03 09:13:57;;;;;;;5.97;1.80;;;18.70;99.90;;;;;;4974809;28;20193;-70
2023/06/03 09:16:29;;;;;;;4.43;1.65;;;18.60;99.90;;;;;;4976536;28;20200;-71
2023/06/03 09:19:03;;;;;;;5.47;2.15;;;18.60;99.90;;;;;;4974626;28;20214;-73
2023/06/03 09:21:34;;;;;;;7.32;1.63;;;18.60;99.90;;;;;;4969526;28;20200;-73
2023/06/03 09:24:05;;;;;;;5.00;1.35;;;18.60;99.90;;;;;;4969655;28;20755;-73
2023/06/03 09:26:36;;;;;;;6.20;1.88;;;18.60;99.90;;;;;;4971064;28;20235;-72
2023/06/03 09:29:07;;;;;;;5.80;1.75;;;18.60;99.90;;;;;;4975180;28;20243;-73
2023/06/03 09:31:38;;;;;;;6.20;2.10;;;18.60;99.90;;;;;;4975734;28;20200;-73
2023/06/03 09:34:11;;;;;;;8.32;2.08;;;18.60;99.90;;;;;;4974657;28;20296;-71
2023/06/03 09:36:52;;;;;;;9.50;2.13;;;18.60;99.90;;;;;;4971605;28;20200;-71
2023/06/03 09:39:36;;;;;;;7.30;1.95;;;18.60;99.90;;;;;;4974554;28;20202;-71
2023/06/03 09:42:07;;;;;;;4.63;1.85;;;18.60;99.90;;;;;;4971662;28;20208;-72
2023/06/03 09:44:49;;;;;;;5.70;1.77;;;18.60;99.90;;;;;;4979984;28;20192;-72
2023/06/03 09:47:20;;;;;;;6.93;1.75;;;18.50;99.90;;;;;;4984541;28;20207;-71
2023/06/03 09:50:11;;;;;;;6.57;1.75;;;18.50;99.90;;;;;;4975811;28;20218;-73
2023/06/03 09:52:42;;;;;;;7.45;2.47;;;18.50;99.90;;;;;;4975455;28;20568;-74
2023/06/03 09:55:15;;;;;;;6.80;1.80;;;18.50;99.90;;;;;;4976350;28;20223;-74
2023/06/03 09:58:02;;;;;;;8.68;2.10;;;18.50;99.90;;;;;;4975377;28;20210;-73
2023/06/03 10:00:35;;;;;;;8.27;1.98;;;18.50;99.90;;;;;;4974664;28;20315;-73
2023/06/03 10:03:09;;;;;;;8.40;1.95;;;18.50;99.90;;;;;;4972847;28;20197;-73
2023/06/03 10:05:42;;;;;;;8.80;2.00;;;18.50;99.90;;;;;;4986117;28;20215;-73
2023/06/03 10:08:13;;;;;;;8.48;2.35;;;18.50;99.90;;;;;;4975398;28;20204;-71
2023/06/03 10:10:58;;;;;;;7.47;1.80;;;18.50;99.90;;;;;;4975698;28;20228;-72
2023/06/03 10:13:29;;;;;;;8.95;2.17;;;18.50;99.90;;;;;;4972403;28;20200;-72
2023/06/03 10:16:02;;;;;;;9.30;2.08;;;18.50;99.90;;;;;;4974022;28;20208;-73
2023/06/03 10:18:40;;;;;;;9.25;2.30;;;18.50;99.90;;;;;;4975828;28;20232;-71
2023/06/03 10:21:15;;;;;;;7.75;2.58;;;18.50;99.90;;;;;;4975650;28;20275;-74
2023/06/03 10:23:46;;;;;;;10.13;2.55;;;18.50;99.90;;;;;;4974794;28;20250;-73
2023/06/03 10:26:18;;;;;;;7.45;2.35;;;18.40;99.90;;;;;;4991693;28;20212;-73
2023/06/03 10:28:50;;;;;;;10.63;2.85;;;18.40;99.90;;;;;;4974737;28;20196;-72
2023/06/03 10:31:22;;;;;;;8.32;2.90;;;18.40;99.90;;;;;;4974902;28;20252;-74
2023/06/03 10:33:53;;;;;;;7.97;3.28;;;18.40;99.90;;;;;;4975187;28;20210;-74
2023/06/03 10:36:28;;;;;;;9.88;3.30;;;18.40;99.90;;;;;;4974260;28;20291;-73
2023/06/03 10:39:03;;;;;;;9.45;2.88;;;18.40;99.90;;;;;;4974905;28;20643;-72
2023/06/03 10:41:34;;;;;;;7.25;2.70;;;18.30;99.90;;;;;;4974947;28;20316;-74
2023/06/03 10:44:05;;;;;;;7.57;2.72;;;18.30;99.90;;;;;;4975269;28;20192;-72
2023/06/03 10:46:39;;;;;;;10.27;2.50;;;18.30;99.90;;;;;;4974217;28;20220;-72
2023/06/03 10:49:11;;;;;;;9.25;2.53;;;18.30;99.90;;;;;;4973007;28;20256;-73
2023/06/03 10:51:56;;;;;;;8.82;2.58;;;18.30;99.90;;;;;;4974944;28;20664;-71
2023/06/03 10:54:50;;;;;;;7.90;2.33;;;18.20;99.90;;;;;;4975069;28;20637;-72
2023/06/03 10:57:24;;;;;;;7.65;2.38;;;18.20;99.90;;;;;;4975692;28;20632;-72
2023/06/03 10:59:54;;;;;;;8.25;2.38;;;18.20;99.90;;;;;;4974814;28;20722;-72
2023/06/03 11:02:25;;;;;;;8.35;2.30;;;18.20;99.90;;;;;;4973908;28;20283;-72
2023/06/03 11:05:25;;;;;;;6.60;2.33;;;18.20;99.90;;;;;;4974858;28;20282;-72
2023/06/03 11:07:58;;;;;;;11.13;2.72;;;18.20;99.90;;;;;;4974815;28;20197;-72
2023/06/03 11:10:45;;;;;;;8.73;2.70;;;18.20;99.90;;;;;;4973124;28;20204;-72
2023/06/03 11:13:45;;;;;;;10.32;2.53;;;18.20;99.90;;;;;;4974620;28;20192;-72
2023/06/03 11:16:15;;;;;;;9.57;2.97;;;18.10;99.90;;;;;;4973983;28;20200;-73
2023/06/03 11:18:46;;;;;;;5.78;2.55;;;18.20;99.90;;;;;;4973817;28;20188;-72
2023/06/03 11:21:50;;;;;;;13.02;4.07;;;18.10;99.90;;;;;;4972797;28;20211;-72
2023/06/03 11:24:51;;;;;;;7.78;2.20;;;18.10;99.90;;;;;;4971270;28;20453;-74
2023/06/03 11:27:28;;;;;;;9.75;2.47;;;18.10;99.90;;;;;;4973406;28;20227;-72
2023/06/03 11:30:01;;;;;;;8.35;1.75;;;18.10;99.90;;;;;;4974601;28;20551;-73
2023/06/03 11:32:33;;;;;;;10.15;1.88;;;18.10;99.90;;;;;;4974317;28;20211;-73
2023/06/03 11:35:31;;;;;;;7.30;1.70;;;18.10;99.90;;;;;;4974495;28;20188;-72
2023/06/03 11:38:01;;;;;;;7.25;1.90;;;18.10;99.90;;;;;;4955361;28;20212;-73
2023/06/03 11:40:47;;;;;;;9.25;1.67;;;18.10;99.90;;;;;;4972214;28;20204;-73
2023/06/03 11:43:20;;;;;;;8.23;1.77;;;18.10;99.90;;;;;;4973353;28;20198;-73
2023/06/03 11:45:51;;;;;;;12.35;2.20;;;18.10;99.90;;;;;;4973447;28;20208;-73
2023/06/03 11:48:37;;;;;;;8.15;1.92;;;18.10;99.90;;;;;;4972195;28;20210;-73
2023/06/03 11:51:08;;;;;;;8.52;1.90;;;18.00;99.90;;;;;;4974717;28;20188;-72
2023/06/03 11:53:40;;;;;;;10.35;1.90;;;18.10;99.90;;;;;;4973511;28;20660;-72
2023/06/03 11:56:13;;;;;;;8.90;1.95;;;18.00;99.90;;;;;;4972139;28;20703;-72
2023/06/03 11:58:53;;;;;;;6.60;1.85;;;18.10;99.90;;;;;;4974140;28;20227;-72
2023/06/03 12:01:23;;;;;;;7.75;1.70;;;18.00;99.90;;;;;;4971467;28;20227;-73
2023/06/03 12:04:04;;;;;;;7.20;1.80;;;18.10;99.90;;;;;;4972079;28;20644;-72
2023/06/03 12:06:37;;;;;;;9.40;2.10;;;18.00;99.90;;;;;;4971759;28;20216;-73
2023/06/03 12:09:08;;;;;;;8.57;2.63;;;18.10;99.90;;;;;;4965439;28;20200;-72
2023/06/03 12:11:41;;;;;;;8.18;2.17;;;18.10;99.90;;;;;;4972285;28;20204;-73
2023/06/03 12:14:24;;;;;;;6.78;2.15;;;18.00;99.90;;;;;;4972211;28;20239;-72
2023/06/03 12:16:55;;;;;;;10.02;2.25;;;18.00;99.90;;;;;;4973126;28;20200;-72
2023/06/03 12:19:26;;;;;;;7.38;1.75;;;18.00;99.90;;;;;;4972997;28;20200;-72
2023/06/03 12:22:01;;;;;;;12.80;1.95;;;18.00;99.90;;;;;;4973260;28;20196;-72
2023/06/03 12:24:33;;;;;;;9.40;2.17;;;18.00;99.90;;;;;;4976342;28;20286;-72
2023/06/03 12:27:21;;;;;;;12.55;2.85;;;18.00;99.90;;;;;;4975954;28;20648;-72
2023/06/03 12:29:55;;;;;;;11.82;2.42;;;17.90;99.90;;;;;;4976085;28;20200;-72
2023/06/03 12:32:28;;;;;;;9.18;2.10;;;17.90;99.90;;;;;;4976668;28;20203;-73
2023/06/03 12:34:59;;;;;;;9.70;2.15;;;18.00;99.90;;;;;;4976799;28;20204;-72
2023/06/03 12:37:34;;;;;;;8.02;2.00;;;18.00;99.90;;;;;;4976581;28;20204;-72
2023/06/03 12:40:05;;;;;;;10.05;1.95;;;18.00;99.90;;;;;;4971289;28;20199;-72
2023/06/03 12:42:42;;;;;;;10.35;2.05;;;17.90;99.90;;;;;;4976175;28;20683;-72
2023/06/03 12:45:24;;;;;;;4.30;1.50;;;17.90;99.90;;;;;;4976367;28;20203;-75
2023/06/03 12:47:56;;;;;;;9.57;2.17;;;17.90;99.90;;;;;;4973630;28;20710;-74
2023/06/03 12:50:35;;;;;;;6.72;1.77;;;17.90;99.90;;;;;;4974650;28;20200;-74
2023/06/03 12:53:18;;;;;;;5.45;1.70;;;17.90;99.90;;;;;;4976131;28;20287;-74
2023/06/03 12:55:49;;;;;;;8.88;2.00;;;17.90;99.90;;;;;;4975475;28;20204;-75
2023/06/03 12:58:20;;;;;;;7.22;1.88;;;17.90;99.90;;;;;;4974229;28;20206;-74
2023/06/03 13:00:52;;;;;;;11.52;2.25;;;17.90;99.90;;;;;;4972369;28;20627;-74
2023/06/03 13:03:23;;;;;;;7.93;1.70;;;17.80;99.90;;;;;;4975225;28;20568;-74
2023/06/03 13:05:54;;;;;;;11.10;2.10;;;17.90;99.90;;;;;;4975431;28;20682;-72
2023/06/03 13:08:25;;;;;;;8.27;2.08;;;17.90;99.90;;;;;;4973539;28;20216;-72
2023/06/03 13:10:55;;;;;;;11.60;2.28;;;17.90;99.90;;;;;;4974444;28;20219;-72
2023/06/03 13:13:30;;;;;;;7.63;2.20;;;17.90;99.90;;;;;;4975920;28;20235;-72
2023/06/03 13:16:03;;;;;;;10.00;1.98;;;17.90;99.90;;;;;;4974967;28;20204;-72
2023/06/03 13:18:34;;;;;;;11.73;2.17;;;17.90;99.90;;;;;;4966989;28;20212;-72